Time;durP1;ratioP1;P1;durP2;ratioP2;P2;SDS_P1;SDS_P2;PMS_P1;PMS_P2;Temp;Humidity;BMP_temperature;BMP_pressure;BME280_temperature;BME280_humidity;BME280_pressure;Samples;Min_cycle;Max_cycle;Signal;HPM_P1;HPM_P2
2020/12/11 00:00:20;;;;;;;13.63;6.20;;;1.30;99.90;;;;;;5045576;28;20192;-81
2020/12/11 00:02:46;;;;;;;12.00;5.97;;;1.30;99.90;;;;;;5039240;28;20696;-80
2020/12/11 00:05:12;;;;;;;12.25;6.18;;;1.30;99.90;;;;;;5061240;28;20240;-80
2020/12/11 00:07:39;;;;;;;15.30;5.93;;;1.30;99.90;;;;;;5044550;28;20226;-81
2020/12/11 00:10:10;;;;;;;13.85;6.20;;;1.30;99.90;;;;;;5041426;28;20270;-81
2020/12/11 00:12:36;;;;;;;14.38;7.15;;;1.20;99.90;;;;;;5039614;28;20221;-80
2020/12/11 00:15:07;;;;;;;15.98;6.95;;;1.30;99.90;;;;;;5057820;28;20193;-80
2020/12/11 00:17:33;;;;;;;17.70;6.57;;;1.30;99.90;;;;;;5042590;28;20207;-80
2020/12/11 00:19:59;;;;;;;13.60;6.32;;;1.30;99.90;;;;;;5042047;28;21862;-81
2020/12/11 00:22:24;;;;;;;15.07;6.00;;;1.20;99.90;;;;;;5042294;28;20210;-80
2020/12/11 00:24:51;;;;;;;14.73;5.63;;;1.20;99.90;;;;;;5040711;28;20196;-82
2020/12/11 00:27:17;;;;;;;14.52;6.30;;;1.20;99.90;;;;;;5057465;28;20671;-80
2020/12/11 00:29:44;;;;;;;13.93;6.32;;;1.30;99.90;;;;;;5041463;28;20732;-80
2020/12/11 00:32:10;;;;;;;13.05;6.30;;;1.30;99.90;;;;;;5042145;28;20197;-80
2020/12/11 00:34:36;;;;;;;16.08;6.80;;;1.20;99.90;;;;;;5044915;28;20716;-82
2020/12/11 00:37:02;;;;;;;16.90;6.47;;;1.20;99.90;;;;;;5059296;28;20559;-79
2020/12/11 00:39:28;;;;;;;10.00;5.68;;;1.20;99.90;;;;;;5058597;28;20199;-79
2020/12/11 00:41:54;;;;;;;13.88;5.93;;;1.20;99.90;;;;;;5041281;28;20672;-80
2020/12/11 00:44:20;;;;;;;15.23;5.82;;;1.20;99.90;;;;;;5040511;28;20230;-81
2020/12/11 00:46:46;;;;;;;13.65;5.43;;;1.20;99.90;;;;;;5044468;28;20574;-80
2020/12/11 00:49:12;;;;;;;14.80;5.82;;;1.20;99.90;;;;;;5040396;28;20192;-81
2020/12/11 00:51:38;;;;;;;12.20;5.63;;;1.20;99.90;;;;;;5045328;28;20626;-82
2020/12/11 00:54:03;;;;;;;15.80;6.15;;;1.20;99.90;;;;;;5038406;28;20266;-79
2020/12/11 00:56:29;;;;;;;16.35;6.50;;;1.20;99.90;;;;;;5040901;28;20201;-82
2020/12/11 00:58:55;;;;;;;12.82;5.82;;;1.20;99.90;;;;;;5040465;28;20565;-79
2020/12/11 01:01:21;;;;;;;14.15;6.00;;;1.30;99.90;;;;;;5045181;28;20197;-80
2020/12/11 01:03:47;;;;;;;14.35;5.85;;;1.20;99.90;;;;;;5043707;28;20204;-81
2020/12/11 01:06:12;;;;;;;13.90;6.47;;;1.20;99.90;;;;;;5039092;28;20233;-79
2020/12/11 01:08:38;;;;;;;16.25;6.30;;;1.20;99.90;;;;;;5043590;28;20197;-79
2020/12/11 01:11:04;;;;;;;13.93;6.30;;;1.20;99.90;;;;;;5036488;28;20209;-81
2020/12/11 01:13:30;;;;;;;12.38;6.18;;;1.20;99.90;;;;;;5042213;28;20197;-79
2020/12/11 01:15:55;;;;;;;13.48;6.32;;;1.10;99.90;;;;;;5040963;28;20625;-78
2020/12/11 01:18:21;;;;;;;13.50;5.82;;;1.10;99.90;;;;;;5044701;28;20262;-79
2020/12/11 01:20:47;;;;;;;18.63;6.47;;;1.00;99.90;;;;;;5044937;28;20224;-78
2020/12/11 01:23:12;;;;;;;13.02;6.13;;;1.00;99.90;;;;;;5034516;28;20198;-79
2020/12/11 01:25:39;;;;;;;18.13;6.55;;;1.00;99.90;;;;;;5042789;28;20205;-79
2020/12/11 01:28:05;;;;;;;14.90;6.30;;;1.00;99.90;;;;;;5040773;28;20773;-80
2020/12/11 01:30:32;;;;;;;12.15;5.88;;;1.00;99.90;;;;;;5042362;28;20201;-78
2020/12/11 01:32:58;;;;;;;14.98;6.63;;;1.00;99.90;;;;;;5058215;28;20348;-83
2020/12/11 01:35:24;;;;;;;13.07;6.05;;;1.10;99.90;;;;;;5040118;28;20204;-79
2020/12/11 01:37:49;;;;;;;12.73;6.47;;;1.10;99.90;;;;;;5044270;28;20200;-79
2020/12/11 01:40:18;;;;;;;18.85;6.60;;;1.00;99.90;;;;;;5035835;28;20190;-80
2020/12/11 01:42:44;;;;;;;13.85;6.82;;;1.00;99.90;;;;;;5040354;28;20778;-81
2020/12/11 01:45:09;;;;;;;17.20;7.25;;;0.90;99.90;;;;;;5044209;28;20217;-80
2020/12/11 01:47:39;;;;;;;15.50;6.57;;;0.90;99.90;;;;;;5039001;28;20196;-80
2020/12/11 01:50:08;;;;;;;15.45;6.63;;;0.90;99.90;;;;;;5042436;28;20201;-79
2020/12/11 01:52:34;;;;;;;19.08;6.35;;;0.90;99.90;;;;;;5040414;28;20192;-80
2020/12/11 01:55:00;;;;;;;13.05;6.18;;;1.00;99.90;;;;;;5055690;28;20732;-79
2020/12/11 01:57:33;;;;;;;12.77;6.75;;;0.90;99.90;;;;;;5039765;28;20268;-80
2020/12/11 02:00:04;;;;;;;13.70;6.10;;;1.00;99.90;;;;;;5042834;28;20204;-79
2020/12/11 02:02:35;;;;;;;16.98;6.57;;;1.00;99.90;;;;;;5040259;28;20197;-79
2020/12/11 02:05:02;;;;;;;14.77;6.50;;;1.00;99.90;;;;;;5044345;28;20242;-79
2020/12/11 02:07:28;;;;;;;19.75;6.47;;;1.00;99.90;;;;;;5038016;28;20698;-80
2020/12/11 02:09:53;;;;;;;12.82;6.05;;;1.00;99.90;;;;;;5057858;28;20220;-80
2020/12/11 02:12:19;;;;;;;14.73;6.50;;;0.90;99.90;;;;;;5046724;28;20741;-81
2020/12/11 02:14:47;;;;;;;15.13;6.13;;;0.90;99.90;;;;;;5040877;28;20261;-80
2020/12/11 02:17:12;;;;;;;13.30;6.70;;;0.90;99.90;;;;;;5046492;28;20189;-80
2020/12/11 02:19:38;;;;;;;11.90;6.22;;;0.90;99.90;;;;;;5057377;28;20561;-80
2020/12/11 02:22:06;;;;;;;11.05;5.88;;;0.80;99.90;;;;;;5040699;28;20189;-79
2020/12/11 02:24:32;;;;;;;11.93;6.03;;;0.80;99.90;;;;;;5042297;28;20212;-81
2020/12/11 02:27:03;;;;;;;10.60;5.53;;;0.90;99.90;;;;;;5037826;28;20239;-81
2020/12/11 02:29:29;;;;;;;12.40;5.78;;;0.90;99.90;;;;;;5039358;28;20196;-80
2020/12/11 02:31:55;;;;;;;11.75;5.55;;;0.90;99.90;;;;;;5045805;28;20238;-80
2020/12/11 02:34:22;;;;;;;11.90;5.72;;;0.90;99.90;;;;;;5040714;28;20203;-79
2020/12/11 02:36:48;;;;;;;13.80;6.15;;;0.90;99.90;;;;;;5037406;28;20201;-79
2020/12/11 02:39:22;;;;;;;14.13;5.85;;;0.90;99.90;;;;;;5059737;28;20231;-79
2020/12/11 02:41:48;;;;;;;11.18;5.63;;;0.90;99.90;;;;;;5037769;28;20553;-80
2020/12/11 02:44:14;;;;;;;11.88;5.40;;;0.90;99.90;;;;;;5056590;28;20224;-79
2020/12/11 02:46:40;;;;;;;13.27;5.10;;;0.90;99.90;;;;;;5056294;28;20752;-79
2020/12/11 02:49:05;;;;;;;11.25;5.75;;;0.80;99.90;;;;;;5058160;28;20215;-79
2020/12/11 02:51:31;;;;;;;12.80;5.40;;;0.80;99.90;;;;;;5040505;28;20220;-79
2020/12/11 02:53:57;;;;;;;12.07;5.57;;;0.90;99.90;;;;;;5043389;28;20200;-80
2020/12/11 02:56:23;;;;;;;12.20;5.57;;;0.90;99.90;;;;;;5056485;28;20189;-79
2020/12/11 02:58:49;;;;;;;16.00;5.28;;;0.90;99.90;;;;;;5040295;28;20205;-78
2020/12/11 03:01:16;;;;;;;12.30;5.47;;;0.90;99.90;;;;;;5035695;28;20189;-79
2020/12/11 03:03:42;;;;;;;11.50;5.50;;;0.90;99.90;;;;;;5040349;28;20232;-83
2020/12/11 03:06:08;;;;;;;12.38;5.35;;;0.90;99.90;;;;;;5037651;28;20205;-79
2020/12/11 03:08:34;;;;;;;12.73;5.38;;;0.90;99.90;;;;;;5042375;28;20319;-81
2020/12/11 03:11:01;;;;;;;10.95;5.28;;;0.90;99.90;;;;;;5045353;28;20197;-80
2020/12/11 03:13:33;;;;;;;14.95;5.53;;;0.90;99.90;;;;;;5041983;28;20220;-80
2020/12/11 03:15:59;;;;;;;12.75;5.40;;;0.90;99.90;;;;;;5041340;28;20206;-81
2020/12/11 03:18:29;;;;;;;11.35;5.45;;;0.90;99.90;;;;;;5045909;28;20201;-82
2020/12/11 03:20:55;;;;;;;12.90;5.88;;;0.90;99.90;;;;;;5046894;28;20201;-79
2020/12/11 03:23:20;;;;;;;12.55;4.70;;;0.90;99.90;;;;;;5042818;28;20208;-79
2020/12/11 03:25:46;;;;;;;12.07;5.43;;;0.90;99.90;;;;;;5042404;28;20204;-78
2020/12/11 03:28:12;;;;;;;9.40;4.85;;;0.80;99.90;;;;;;5036528;28;20672;-79
2020/12/11 03:30:38;;;;;;;13.15;5.88;;;0.80;99.90;;;;;;5035740;28;20193;-80
2020/12/11 03:33:04;;;;;;;11.98;5.10;;;0.80;99.90;;;;;;5054008;28;20190;-80
2020/12/11 03:35:29;;;;;;;11.40;5.20;;;0.70;99.90;;;;;;5037607;28;20611;-79
2020/12/11 03:37:55;;;;;;;10.02;4.93;;;0.70;99.90;;;;;;5036882;28;20198;-79
2020/12/11 03:40:21;;;;;;;12.32;4.78;;;0.80;99.90;;;;;;5039852;28;20204;-80
2020/12/11 03:42:46;;;;;;;13.07;5.53;;;0.80;99.90;;;;;;5041306;28;20197;-78
2020/12/11 03:45:12;;;;;;;11.45;5.03;;;0.80;99.90;;;;;;5041177;28;20313;-82
2020/12/11 03:47:40;;;;;;;10.70;5.18;;;0.80;99.90;;;;;;5038064;28;20192;-80
2020/12/11 03:50:05;;;;;;;9.80;5.00;;;0.80;99.90;;;;;;5044957;28;20216;-78
2020/12/11 03:52:31;;;;;;;10.73;4.60;;;0.80;99.90;;;;;;5039512;28;20189;-80
2020/12/11 03:54:57;;;;;;;9.90;4.88;;;0.90;99.90;;;;;;5043200;28;20192;-78
2020/12/11 03:57:23;;;;;;;11.63;4.47;;;0.80;99.90;;;;;;5059483;28;20208;-79
2020/12/11 03:59:49;;;;;;;9.40;4.20;;;0.80;99.90;;;;;;5043675;28;20193;-79
2020/12/11 04:02:15;;;;;;;9.60;4.63;;;0.80;99.90;;;;;;5041059;28;20261;-78
2020/12/11 04:04:43;;;;;;;8.63;4.40;;;0.80;99.90;;;;;;5047895;28;20196;-79
2020/12/11 04:07:09;;;;;;;11.25;4.57;;;0.80;99.90;;;;;;5047389;28;20283;-77
2020/12/11 04:09:34;;;;;;;6.95;4.07;;;0.80;99.90;;;;;;5045684;28;20292;-79
2020/12/11 04:12:00;;;;;;;10.75;4.03;;;0.80;99.90;;;;;;5050984;28;20241;-78
2020/12/11 04:14:26;;;;;;;7.00;4.20;;;0.80;99.90;;;;;;5044393;28;20560;-79
2020/12/11 04:16:51;;;;;;;9.38;4.22;;;0.80;99.90;;;;;;5039653;28;20208;-79
2020/12/11 04:19:18;;;;;;;10.85;4.22;;;0.80;99.90;;;;;;5059750;28;20185;-79
2020/12/11 04:21:51;;;;;;;7.25;4.10;;;0.80;99.90;;;;;;5049586;28;20215;-79
2020/12/11 04:24:18;;;;;;;8.95;4.30;;;0.90;99.90;;;;;;5056987;28;20670;-78
2020/12/11 04:26:44;;;;;;;10.57;4.07;;;0.90;99.90;;;;;;5045276;28;20209;-81
2020/12/11 04:29:10;;;;;;;7.85;3.83;;;0.90;99.90;;;;;;5045568;28;20193;-79
2020/12/11 04:31:36;;;;;;;5.25;3.20;;;1.00;99.90;;;;;;5046036;28;20681;-79
2020/12/11 04:34:02;;;;;;;6.60;3.50;;;0.90;99.90;;;;;;5060840;28;20201;-79
2020/12/11 04:36:28;;;;;;;8.55;3.55;;;0.90;99.90;;;;;;5043374;28;20697;-80
2020/12/11 04:38:56;;;;;;;8.70;3.83;;;0.90;99.90;;;;;;5041713;28;20205;-80
2020/12/11 04:41:26;;;;;;;6.95;3.58;;;0.90;99.90;;;;;;5064134;28;20205;-80
2020/12/11 04:43:51;;;;;;;7.15;3.78;;;0.90;99.90;;;;;;5056703;28;20232;-79
2020/12/11 04:46:17;;;;;;;7.45;3.50;;;0.90;99.90;;;;;;5043096;28;20660;-78
2020/12/11 04:48:43;;;;;;;6.78;3.50;;;0.90;99.90;;;;;;5058226;28;20189;-80
2020/12/11 04:51:09;;;;;;;8.23;3.50;;;0.90;99.90;;;;;;5039670;28;20193;-78
2020/12/11 04:53:37;;;;;;;7.10;3.90;;;0.90;99.90;;;;;;5041369;28;20501;-83
2020/12/11 04:56:05;;;;;;;5.10;3.30;;;0.90;99.90;;;;;;5047287;28;20201;-80
2020/12/11 04:58:32;;;;;;;6.15;3.40;;;0.90;99.90;;;;;;5042322;28;20656;-79
2020/12/11 05:01:04;;;;;;;5.95;3.38;;;0.90;99.90;;;;;;5057449;28;20204;-79
2020/12/11 05:03:34;;;;;;;5.75;3.22;;;0.90;99.90;;;;;;5041188;28;20630;-81
2020/12/11 05:06:00;;;;;;;5.45;3.28;;;0.90;99.90;;;;;;5060281;28;20209;-79
2020/12/11 05:08:26;;;;;;;5.63;3.22;;;0.90;99.90;;;;;;5043082;28;20663;-80
2020/12/11 05:10:52;;;;;;;5.75;3.10;;;1.00;99.90;;;;;;5038840;28;20193;-79
2020/12/11 05:13:25;;;;;;;9.48;3.92;;;1.00;99.90;;;;;;5056267;28;20280;-79
2020/12/11 05:16:11;;;;;;;5.60;2.90;;;1.00;99.90;;;;;;5038221;28;20201;-84
2020/12/11 05:18:37;;;;;;;5.65;3.22;;;1.00;99.90;;;;;;5045787;28;20219;-81
2020/12/11 05:21:17;;;;;;;6.47;2.78;;;1.00;99.90;;;;;;5048447;28;20205;-79
2020/12/11 05:24:12;;;;;;;5.05;3.20;;;0.90;99.90;;;;;;5050070;28;20672;-82
2020/12/11 05:26:37;;;;;;;5.88;3.10;;;1.00;99.90;;;;;;5030456;28;20209;-81
2020/12/11 05:29:04;;;;;;;5.97;3.13;;;1.00;99.90;;;;;;5050456;28;20193;-79
2020/12/11 05:31:30;;;;;;;7.03;3.10;;;1.10;99.90;;;;;;5056819;28;20188;-80
2020/12/11 05:34:13;;;;;;;6.13;3.05;;;1.10;99.90;;;;;;5040609;28;20572;-79
2020/12/11 05:36:54;;;;;;;7.38;3.45;;;1.00;99.90;;;;;;5041953;28;20232;-77
2020/12/11 05:39:28;;;;;;;7.00;4.35;;;1.10;99.90;;;;;;5047518;28;20746;-79
2020/12/11 05:41:54;;;;;;;6.68;3.15;;;1.10;99.90;;;;;;5043829;28;20659;-79
2020/12/11 05:44:38;;;;;;;5.20;3.25;;;1.10;99.90;;;;;;5064397;28;20208;-79
2020/12/11 05:47:24;;;;;;;4.88;3.25;;;1.10;99.90;;;;;;5059148;28;20205;-79
2020/12/11 05:49:50;;;;;;;5.50;3.08;;;1.20;99.90;;;;;;5045276;28;20563;-79
2020/12/11 05:52:18;;;;;;;5.60;3.00;;;1.20;99.90;;;;;;5038559;28;20212;-79
2020/12/11 05:54:49;;;;;;;9.40;4.13;;;1.20;99.90;;;;;;5048337;28;20280;-81
2020/12/11 05:57:16;;;;;;;8.30;3.95;;;1.20;99.90;;;;;;5049987;28;20216;-79
2020/12/11 05:59:43;;;;;;;4.60;3.05;;;1.20;99.90;;;;;;5050876;28;20560;-82
2020/12/11 06:02:16;;;;;;;5.75;2.95;;;1.20;99.90;;;;;;5069267;28;20189;-80
2020/12/11 06:04:45;;;;;;;6.32;3.25;;;1.20;99.90;;;;;;5051033;28;20209;-80
2020/12/11 06:07:15;;;;;;;6.13;3.22;;;1.20;99.90;;;;;;5042424;28;20219;-81
2020/12/11 06:09:42;;;;;;;6.93;3.53;;;1.30;99.90;;;;;;5057652;28;20201;-80
2020/12/11 06:12:10;;;;;;;7.80;3.58;;;1.20;99.90;;;;;;5047882;28;20232;-83
2020/12/11 06:14:48;;;;;;;5.32;3.00;;;1.20;99.90;;;;;;5061443;28;20261;-82
2020/12/11 06:17:15;;;;;;;5.13;2.97;;;1.30;99.90;;;;;;5047754;28;20185;-82
2020/12/11 06:19:43;;;;;;;4.95;3.08;;;1.30;99.90;;;;;;5044578;28;21014;-78
2020/12/11 06:22:09;;;;;;;5.50;3.20;;;1.30;99.90;;;;;;5046255;28;20199;-79
2020/12/11 06:24:35;;;;;;;5.30;3.10;;;1.30;99.90;;;;;;5062353;28;20201;-80
2020/12/11 06:27:03;;;;;;;5.88;3.30;;;1.30;99.90;;;;;;5044650;28;20793;-79
2020/12/11 06:29:35;;;;;;;6.82;3.25;;;1.30;99.90;;;;;;5044155;28;20731;-79
2020/12/11 06:32:01;;;;;;;7.63;3.50;;;1.40;99.90;;;;;;5045729;28;20207;-76
2020/12/11 06:34:27;;;;;;;8.07;2.95;;;1.40;99.90;;;;;;5047183;28;20268;-79
2020/12/11 06:36:54;;;;;;;6.10;3.40;;;1.40;99.90;;;;;;5063614;28;20699;-80
2020/12/11 06:39:38;;;;;;;6.18;3.78;;;1.40;99.90;;;;;;5040164;28;20690;-78
2020/12/11 06:42:06;;;;;;;7.47;4.05;;;1.40;99.90;;;;;;5046180;28;20201;-81
2020/12/11 06:44:31;;;;;;;7.00;3.70;;;1.40;99.90;;;;;;5043117;28;20249;-77
2020/12/11 06:47:10;;;;;;;9.40;4.38;;;1.40;99.90;;;;;;5044336;28;20679;-79
2020/12/11 06:50:05;;;;;;;7.93;3.10;;;1.40;99.90;;;;;;5040170;28;20228;-78
2020/12/11 06:52:35;;;;;;;8.07;3.95;;;1.40;99.90;;;;;;5041018;28;20193;-79
2020/12/11 06:55:01;;;;;;;7.95;3.40;;;1.40;99.90;;;;;;5042841;28;20200;-79
2020/12/11 06:57:32;;;;;;;7.55;3.97;;;1.40;99.90;;;;;;5043164;28;20189;-79
2020/12/11 06:59:58;;;;;;;5.90;3.17;;;1.50;99.90;;;;;;5042133;28;20720;-79
2020/12/11 07:02:26;;;;;;;5.32;3.30;;;1.50;99.90;;;;;;5047110;28;20208;-79
2020/12/11 07:04:52;;;;;;;6.38;3.22;;;1.40;99.90;;;;;;5047663;28;20197;-79
2020/12/11 07:07:24;;;;;;;6.50;3.00;;;1.40;99.90;;;;;;5044152;28;20205;-79
2020/12/11 07:09:51;;;;;;;5.80;3.40;;;1.40;99.90;;;;;;5047433;28;20188;-79
2020/12/11 07:12:17;;;;;;;5.20;2.97;;;1.40;99.90;;;;;;5063816;28;20572;-79
2020/12/11 07:14:46;;;;;;;4.85;3.10;;;1.40;99.90;;;;;;5044948;28;20198;-81
2020/12/11 07:17:28;;;;;;;5.68;3.55;;;1.50;99.90;;;;;;5042800;28;20232;-83
2020/12/11 07:19:56;;;;;;;5.65;2.85;;;1.50;99.90;;;;;;5042021;28;20516;-80
2020/12/11 07:22:22;;;;;;;4.35;2.95;;;1.50;99.90;;;;;;5041650;28;20193;-82
2020/12/11 07:24:48;;;;;;;3.83;2.65;;;1.50;99.90;;;;;;5039451;28;20223;-82
2020/12/11 07:27:14;;;;;;;4.20;3.00;;;1.50;99.90;;;;;;5045155;28;20205;-80
2020/12/11 07:29:52;;;;;;;6.10;3.60;;;1.50;99.90;;;;;;5042039;28;20250;-81
2020/12/11 07:32:22;;;;;;;5.25;3.40;;;1.50;99.90;;;;;;5061116;28;20592;-81
2020/12/11 07:34:48;;;;;;;6.28;3.30;;;1.50;99.90;;;;;;5041656;28;20223;-80
2020/12/11 07:37:14;;;;;;;6.30;3.28;;;1.50;99.90;;;;;;5045330;28;20203;-80
2020/12/11 07:39:39;;;;;;;5.03;3.13;;;1.50;99.90;;;;;;5051445;28;20556;-79
2020/12/11 07:42:07;;;;;;;4.50;3.10;;;1.50;99.90;;;;;;5042484;28;20308;-83
2020/12/11 07:44:35;;;;;;;4.43;2.90;;;1.50;99.90;;;;;;5065902;28;20192;-80
2020/12/11 07:47:08;;;;;;;5.25;2.70;;;1.50;99.90;;;;;;5043802;28;20805;-81
2020/12/11 07:49:42;;;;;;;5.60;2.80;;;1.50;99.90;;;;;;5041069;28;20284;-81
2020/12/11 07:52:09;;;;;;;5.45;3.13;;;1.50;99.90;;;;;;5047015;28;20227;-82
2020/12/11 07:54:35;;;;;;;4.88;2.40;;;1.50;99.90;;;;;;5041985;28;20259;-82
2020/12/11 07:57:19;;;;;;;5.18;2.92;;;1.50;99.90;;;;;;5061423;28;20288;-82
2020/12/11 07:59:59;;;;;;;4.22;2.67;;;1.50;99.90;;;;;;5046831;28;20205;-80
2020/12/11 08:02:26;;;;;;;3.63;2.42;;;1.60;99.90;;;;;;5047137;28;20235;-79
2020/12/11 08:04:52;;;;;;;5.15;3.08;;;1.50;99.90;;;;;;5059179;28;20251;-77
2020/12/11 08:07:27;;;;;;;3.22;2.35;;;1.60;99.90;;;;;;5059858;28;20245;-79
2020/12/11 08:09:54;;;;;;;6.13;3.55;;;1.60;99.90;;;;;;5042148;28;20605;-78
2020/12/11 08:12:22;;;;;;;8.02;3.97;;;1.60;99.90;;;;;;5041838;28;20218;-80
2020/12/11 08:14:48;;;;;;;4.97;3.05;;;1.60;99.90;;;;;;5057367;28;20284;-80
2020/12/11 08:17:20;;;;;;;4.22;3.10;;;1.60;99.90;;;;;;5045001;28;20205;-80
2020/12/11 08:20:00;;;;;;;5.15;3.25;;;1.60;99.90;;;;;;5024255;28;20287;-79
2020/12/11 08:22:37;;;;;;;5.57;2.83;;;1.60;99.90;;;;;;5042379;28;20255;-79
2020/12/11 08:25:24;;;;;;;4.43;3.00;;;1.70;99.90;;;;;;5047455;28;20203;-79
2020/12/11 08:27:53;;;;;;;14.60;6.10;;;1.70;99.90;;;;;;5040145;28;20193;-80
2020/12/11 08:30:20;;;;;;;7.70;3.83;;;1.70;99.90;;;;;;5042795;28;20197;-79
2020/12/11 08:32:48;;;;;;;6.88;3.80;;;1.70;99.90;;;;;;5039377;28;20686;-79
2020/12/11 08:35:21;;;;;;;4.47;2.92;;;1.70;99.90;;;;;;5055808;28;20193;-78
2020/12/11 08:37:55;;;;;;;6.35;3.80;;;1.70;99.90;;;;;;5063962;28;20221;-80
2020/12/11 08:40:21;;;;;;;7.25;3.70;;;1.70;99.90;;;;;;5061202;28;20232;-79
2020/12/11 08:51:00;;;;;;;10.65;4.35;;;1.90;99.90;;;;;;5067189;28;20220;-79
2020/12/11 08:53:28;;;;;;;7.38;4.55;;;1.80;99.90;;;;;;5063109;28;20673;-79
2020/12/11 08:55:54;;;;;;;5.35;3.58;;;1.80;99.90;;;;;;5061113;28;20200;-77
2020/12/11 08:58:19;;;;;;;4.88;3.42;;;1.80;99.90;;;;;;5045246;28;20478;-80
2020/12/11 09:00:45;;;;;;;5.63;3.40;;;1.80;99.90;;;;;;5060361;28;20205;-78
2020/12/11 09:03:11;;;;;;;7.32;3.83;;;1.80;99.90;;;;;;5042036;28;20207;-80
2020/12/11 09:05:39;;;;;;;6.65;3.95;;;1.80;99.90;;;;;;5043784;28;20270;-80
2020/12/11 09:08:58;;;;;;;7.35;4.05;;;1.80;99.90;;;;;;5040139;28;20213;-79
2020/12/11 09:11:24;;;;;;;6.43;4.28;;;1.90;99.90;;;;;;5041394;28;20200;-79
2020/12/11 09:13:50;;;;;;;7.80;4.10;;;1.90;99.90;;;;;;5046569;28;20192;-81
2020/12/11 09:16:15;;;;;;;7.43;4.05;;;1.80;99.90;;;;;;5044575;28;20510;-78
2020/12/11 09:18:41;;;;;;;7.07;4.13;;;1.80;99.90;;;;;;5056819;28;20196;-78
2020/12/11 09:21:07;;;;;;;6.25;3.97;;;1.80;99.90;;;;;;5042461;28;20209;-79
2020/12/11 09:23:32;;;;;;;10.20;4.25;;;1.90;99.90;;;;;;5055893;28;20198;-78
2020/12/11 09:25:58;;;;;;;7.82;4.38;;;1.90;99.90;;;;;;5055288;28;20220;-79
2020/12/11 09:28:25;;;;;;;8.20;4.68;;;1.90;99.90;;;;;;5042197;28;20248;-78
2020/12/11 09:30:51;;;;;;;7.55;4.57;;;1.90;99.90;;;;;;5035099;28;20240;-79
2020/12/11 09:33:25;;;;;;;10.48;5.18;;;1.90;99.90;;;;;;5030082;28;20209;-82
2020/12/11 09:35:51;;;;;;;11.32;4.95;;;1.90;99.90;;;;;;5044693;28;20246;-80
2020/12/11 09:38:17;;;;;;;9.35;4.95;;;1.90;99.90;;;;;;5061028;28;20208;-80
2020/12/11 09:40:49;;;;;;;10.07;5.05;;;1.90;99.90;;;;;;5037442;28;20757;-80
2020/12/11 09:51:09;;;;;;;9.25;5.50;;;2.00;99.90;;;;;;5062476;28;20192;-81
2020/12/11 09:56:25;;;;;;;17.05;7.32;;;1.90;99.90;;;;;;5056500;28;20203;-80
2020/12/11 09:58:59;;;;;;;13.05;6.63;;;1.90;99.90;;;;;;5024934;28;20208;-79
2020/12/11 10:04:13;;;;;;;16.23;6.03;;;1.90;99.90;;;;;;5052467;28;20261;-79
2020/12/11 10:06:39;;;;;;;38.97;20.27;;;1.90;99.90;;;;;;5033421;28;20212;-80
2020/12/11 10:09:05;;;;;;;15.57;7.43;;;1.90;99.90;;;;;;5055156;28;20202;-79
2020/12/11 10:11:30;;;;;;;12.52;7.03;;;1.90;99.90;;;;;;5042203;28;20706;-80
2020/12/11 10:15:00;;;;;;;27.23;13.60;;;1.90;99.90;;;;;;5066240;28;20986;-79
2020/12/11 10:16:54;;;;;;;14.60;6.93;;;1.90;99.90;;;;;;5052863;28;20212;-80
2020/12/11 10:19:21;;;;;;;21.92;8.52;;;1.90;99.90;;;;;;5041228;28;20544;-79
2020/12/11 10:21:48;;;;;;;13.93;6.85;;;1.90;99.90;;;;;;5054464;28;20560;-80
2020/12/11 10:24:15;;;;;;;17.02;7.60;;;1.90;99.90;;;;;;5039189;28;20868;-80
2020/12/11 10:26:41;;;;;;;14.02;6.38;;;1.90;99.90;;;;;;5039581;28;20200;-81
2020/12/11 10:29:07;;;;;;;14.57;7.10;;;1.90;99.90;;;;;;5042321;28;20727;-79
2020/12/11 10:31:33;;;;;;;14.05;6.72;;;1.90;99.90;;;;;;5040860;28;20216;-80
2020/12/11 10:33:59;;;;;;;14.52;6.93;;;1.90;99.90;;;;;;5039859;28;20205;-79
2020/12/11 10:36:43;;;;;;;13.30;6.68;;;1.90;99.90;;;;;;5044559;28;20633;-79
2020/12/11 10:39:10;;;;;;;16.48;7.35;;;1.90;99.90;;;;;;5060506;28;20659;-79
2020/12/11 10:41:36;;;;;;;17.35;8.13;;;1.90;99.90;;;;;;5042578;28;20204;-79
2020/12/11 10:44:02;;;;;;;18.35;8.88;;;2.00;99.90;;;;;;5044844;28;20204;-80
2020/12/11 10:46:28;;;;;;;17.52;8.35;;;1.90;99.90;;;;;;5058253;28;20257;-78
2020/12/11 10:48:54;;;;;;;15.52;7.85;;;1.90;99.90;;;;;;5056449;28;20197;-80
2020/12/11 10:51:20;;;;;;;17.17;7.75;;;2.00;99.90;;;;;;5036570;28;20201;-80
2020/12/11 10:53:46;;;;;;;12.45;6.78;;;2.00;99.90;;;;;;5044663;28;20193;-80
2020/12/11 10:56:13;;;;;;;16.30;6.93;;;1.90;99.90;;;;;;5043802;28;20212;-82
2020/12/11 10:58:39;;;;;;;17.88;8.45;;;1.90;99.90;;;;;;5042231;28;20193;-79
2020/12/11 11:01:10;;;;;;;14.10;6.70;;;2.00;99.90;;;;;;5039938;28;20205;-79
2020/12/11 11:03:37;;;;;;;15.90;7.90;;;2.00;99.90;;;;;;5038946;28;20216;-80
2020/12/11 11:08:59;;;;;;;15.20;6.97;;;1.90;99.90;;;;;;5060794;28;20192;-80
2020/12/11 11:11:36;;;;;;;14.20;7.30;;;2.00;99.90;;;;;;5056862;28;20193;-80
2020/12/11 11:19:21;;;;;;;16.88;8.40;;;1.90;99.90;;;;;;5060908;28;20203;-77
2020/12/11 11:24:47;;;;;;;18.23;8.93;;;2.00;99.90;;;;;;5055226;28;20287;-79
2020/12/11 11:29:47;;;;;;;17.15;8.10;;;2.00;99.90;;;;;;5055896;28;20573;-79
2020/12/11 11:32:14;;;;;;;16.98;8.00;;;1.90;99.90;;;;;;5042375;28;20231;-80
2020/12/11 11:34:40;;;;;;;19.33;8.13;;;1.90;99.90;;;;;;5040476;28;20239;-78
2020/12/11 11:37:06;;;;;;;19.50;8.18;;;1.90;99.90;;;;;;5037060;28;20228;-79
2020/12/11 11:39:31;;;;;;;17.15;7.90;;;1.90;99.90;;;;;;5044405;28;20612;-79
2020/12/11 11:41:57;;;;;;;21.80;10.18;;;1.90;99.90;;;;;;5057155;28;20201;-80
2020/12/11 11:44:44;;;;;;;19.60;8.88;;;1.90;99.90;;;;;;5039593;28;20572;-82
2020/12/11 11:47:09;;;;;;;21.50;9.32;;;1.90;99.90;;;;;;5062797;28;20641;-79
2020/12/11 11:54:45;;;;;;;21.55;9.55;;;1.90;99.90;;;;;;5057184;28;20197;-79
2020/12/11 11:57:10;;;;;;;23.30;9.65;;;1.90;99.90;;;;;;5040875;28;20675;-77
2020/12/11 11:59:36;;;;;;;15.68;7.63;;;1.90;99.90;;;;;;5037947;28;20201;-80
2020/12/11 12:02:02;;;;;;;20.05;10.38;;;1.80;99.90;;;;;;5041316;28;20201;-78
2020/12/11 12:04:27;;;;;;;21.52;9.23;;;1.80;99.90;;;;;;5063390;28;20296;-80
2020/12/11 12:06:53;;;;;;;24.05;9.23;;;1.80;99.90;;;;;;5058807;28;20205;-82
2020/12/11 12:09:19;;;;;;;20.95;9.60;;;1.80;99.90;;;;;;5037781;28;20194;-81
2020/12/11 12:11:45;;;;;;;24.80;10.13;;;1.80;99.90;;;;;;5057531;28;20579;-81
2020/12/11 12:14:11;;;;;;;21.38;10.00;;;1.80;99.90;;;;;;5063672;28;20237;-79
2020/12/11 12:16:38;;;;;;;24.45;9.65;;;1.90;99.90;;;;;;5060215;28;20638;-81
2020/12/11 12:19:04;;;;;;;20.25;10.10;;;1.80;99.90;;;;;;5040270;28;20205;-79
2020/12/11 12:29:36;;;;;;;28.67;11.40;;;1.90;99.90;;;;;;5060170;28;20254;-80
2020/12/11 12:32:09;;;;;;;25.88;11.50;;;1.90;99.90;;;;;;5053782;28;20902;-79
2020/12/11 12:42:24;;;;;;;22.58;10.07;;;1.90;99.90;;;;;;5061548;28;20189;-80
2020/12/11 12:44:50;;;;;;;24.38;11.40;;;1.80;99.90;;;;;;5042103;28;20792;-79
2020/12/11 12:47:16;;;;;;;23.65;12.25;;;1.80;99.90;;;;;;5062669;28;20204;-79
2020/12/11 12:49:42;;;;;;;25.35;12.60;;;1.90;99.90;;;;;;5044237;28;20228;-83
2020/12/11 12:52:08;;;;;;;20.85;9.77;;;1.90;99.90;;;;;;5046757;28;20229;-80
2020/12/11 12:54:33;;;;;;;27.95;12.85;;;1.80;99.90;;;;;;5045854;28;20988;-82
2020/12/11 12:57:05;;;;;;;21.83;10.75;;;1.80;99.90;;;;;;5061590;28;20671;-81
2020/12/11 13:07:06;;;;;;;20.25;10.10;;;1.80;99.90;;;;;;5063725;28;20205;-79
2020/12/11 13:09:33;;;;;;;23.17;10.77;;;1.80;99.90;;;;;;5046216;28;20305;-80
2020/12/11 13:11:59;;;;;;;28.55;10.10;;;1.80;99.90;;;;;;5045979;28;20753;-80
2020/12/11 13:14:25;;;;;;;20.33;9.98;;;1.70;99.90;;;;;;5060274;28;20338;-80
2020/12/11 13:16:50;;;;;;;24.15;10.77;;;1.80;99.90;;;;;;5043796;28;20638;-81
2020/12/11 13:19:18;;;;;;;21.10;11.18;;;1.80;99.90;;;;;;5039476;28;21014;-80
2020/12/11 13:27:23;;;;;;;22.10;10.35;;;1.70;99.90;;;;;;5059497;28;20709;-80
2020/12/11 13:29:49;;;;;;;23.95;10.73;;;1.60;99.90;;;;;;5047275;28;20204;-81
2020/12/11 13:32:15;;;;;;;20.77;9.88;;;1.70;99.90;;;;;;5064973;28;20662;-80
2020/12/11 13:34:41;;;;;;;19.67;10.05;;;1.70;99.90;;;;;;5061565;28;20224;-81
2020/12/11 13:37:07;;;;;;;20.67;9.40;;;1.60;99.90;;;;;;5044926;28;20224;-81
2020/12/11 13:39:33;;;;;;;30.52;13.38;;;1.60;99.90;;;;;;5047259;28;20193;-82
2020/12/11 13:41:58;;;;;;;25.00;10.82;;;1.60;99.90;;;;;;5043285;28;20212;-80
2020/12/11 13:44:26;;;;;;;22.08;10.20;;;1.60;99.90;;;;;;5031013;28;20203;-82
2020/12/11 13:46:52;;;;;;;20.25;9.63;;;1.60;99.90;;;;;;5039383;28;20211;-80
2020/12/11 13:49:19;;;;;;;20.70;9.55;;;1.60;99.90;;;;;;5041365;28;20193;-79
2020/12/11 13:51:49;;;;;;;23.95;10.45;;;1.60;99.90;;;;;;5040297;28;20193;-78
2020/12/11 13:54:15;;;;;;;21.67;10.32;;;1.70;99.90;;;;;;5056774;28;20239;-83
2020/12/11 13:56:41;;;;;;;21.48;9.70;;;1.60;99.90;;;;;;5058448;28;20197;-81
2020/12/11 13:59:10;;;;;;;19.50;10.02;;;1.60;99.90;;;;;;5037152;28;20247;-84
2020/12/11 14:01:35;;;;;;;24.45;9.75;;;1.60;99.90;;;;;;5057321;28;20197;-79
2020/12/11 14:04:02;;;;;;;18.88;9.35;;;1.60;99.90;;;;;;5039245;28;20764;-83